sensor_id;sensor_type;location;lat;lon;timestamp;P1;durP1;ratioP1;P2;durP2;ratioP2
35442;SDS011;21561;55.654;37.592;2023-02-01T00:01:10;28.73;;;10.23;;
35442;SDS011;21561;55.654;37.592;2023-02-01T00:03:37;25.05;;;9.48;;
35442;SDS011;21561;55.654;37.592;2023-02-01T00:06:04;27.10;;;10.15;;
35442;SDS011;21561;55.654;37.592;2023-02-01T00:08:31;26.63;;;10.18;;
35442;SDS011;21561;55.654;37.592;2023-02-01T00:11:03;26.42;;;9.70;;
35442;SDS011;21561;55.654;37.592;2023-02-01T00:13:32;28.13;;;10.23;;
35442;SDS011;21561;55.654;37.592;2023-02-01T00:16:13;24.63;;;9.23;;
35442;SDS011;21561;55.654;37.592;2023-02-01T00:18:43;26.85;;;8.93;;
35442;SDS011;21561;55.654;37.592;2023-02-01T00:21:10;27.73;;;10.18;;
35442;SDS011;21561;55.654;37.592;2023-02-01T00:23:38;26.90;;;9.57;;
35442;SDS011;21561;55.654;37.592;2023-02-01T00:26:09;25.88;;;9.95;;
35442;SDS011;21561;55.654;37.592;2023-02-01T00:28:40;24.40;;;9.32;;
35442;SDS011;21561;55.654;37.592;2023-02-01T00:31:08;25.25;;;9.50;;
35442;SDS011;21561;55.654;37.592;2023-02-01T00:33:34;24.30;;;8.45;;
35442;SDS011;21561;55.654;37.592;2023-02-01T00:36:02;23.15;;;9.02;;
35442;SDS011;21561;55.654;37.592;2023-02-01T00:38:32;25.10;;;8.98;;
35442;SDS011;21561;55.654;37.592;2023-02-01T00:41:04;25.95;;;9.38;;
35442;SDS011;21561;55.654;37.592;2023-02-01T00:43:32;24.42;;;8.45;;
35442;SDS011;21561;55.654;37.592;2023-02-01T00:46:00;25.55;;;8.57;;
35442;SDS011;21561;55.654;37.592;2023-02-01T00:48:27;28.08;;;9.13;;
35442;SDS011;21561;55.654;37.592;2023-02-01T00:51:05;27.70;;;9.68;;
35442;SDS011;21561;55.654;37.592;2023-02-01T00:53:35;25.83;;;9.63;;
35442;SDS011;21561;55.654;37.592;2023-02-01T00:56:02;25.45;;;9.20;;
35442;SDS011;21561;55.654;37.592;2023-02-01T00:58:31;23.80;;;9.00;;
35442;SDS011;21561;55.654;37.592;2023-02-01T01:01:03;25.80;;;9.45;;
35442;SDS011;21561;55.654;37.592;2023-02-01T01:03:38;27.55;;;8.95;;
35442;SDS011;21561;55.654;37.592;2023-02-01T01:06:12;24.50;;;9.48;;
35442;SDS011;21561;55.654;37.592;2023-02-01T01:08:41;23.55;;;8.50;;
35442;SDS011;21561;55.654;37.592;2023-02-01T01:11:09;23.95;;;8.82;;
35442;SDS011;21561;55.654;37.592;2023-02-01T01:13:38;23.63;;;9.48;;
35442;SDS011;21561;55.654;37.592;2023-02-01T01:16:06;25.83;;;9.13;;
35442;SDS011;21561;55.654;37.592;2023-02-01T01:18:35;25.98;;;8.98;;
35442;SDS011;21561;55.654;37.592;2023-02-01T01:21:06;24.10;;;9.38;;
35442;SDS011;21561;55.654;37.592;2023-02-01T01:23:34;25.05;;;9.00;;
35442;SDS011;21561;55.654;37.592;2023-02-01T01:26:06;22.35;;;8.70;;
35442;SDS011;21561;55.654;37.592;2023-02-01T01:28:37;24.92;;;9.27;;
35442;SDS011;21561;55.654;37.592;2023-02-01T01:31:03;25.05;;;9.23;;
35442;SDS011;21561;55.654;37.592;2023-02-01T01:33:33;23.98;;;9.25;;
35442;SDS011;21561;55.654;37.592;2023-02-01T01:36:00;27.17;;;9.70;;
35442;SDS011;21561;55.654;37.592;2023-02-01T01:38:27;24.73;;;9.60;;
35442;SDS011;21561;55.654;37.592;2023-02-01T01:40:54;25.30;;;9.05;;
35442;SDS011;21561;55.654;37.592;2023-02-01T01:43:21;23.77;;;9.27;;
35442;SDS011;21561;55.654;37.592;2023-02-01T01:45:49;27.63;;;9.70;;
35442;SDS011;21561;55.654;37.592;2023-02-01T01:48:25;24.77;;;9.80;;
35442;SDS011;21561;55.654;37.592;2023-02-01T01:51:03;28.85;;;10.52;;
35442;SDS011;21561;55.654;37.592;2023-02-01T01:53:37;27.00;;;10.23;;
35442;SDS011;21561;55.654;37.592;2023-02-01T01:56:08;25.75;;;8.93;;
35442;SDS011;21561;55.654;37.592;2023-02-01T01:58:36;26.55;;;10.20;;
35442;SDS011;21561;55.654;37.592;2023-02-01T02:01:03;24.52;;;9.18;;
35442;SDS011;21561;55.654;37.592;2023-02-01T02:03:32;26.90;;;9.57;;
35442;SDS011;21561;55.654;37.592;2023-02-01T02:06:03;24.48;;;9.23;;
35442;SDS011;21561;55.654;37.592;2023-02-01T02:08:40;23.52;;;8.95;;
35442;SDS011;21561;55.654;37.592;2023-02-01T02:11:07;27.65;;;10.50;;
35442;SDS011;21561;55.654;37.592;2023-02-01T02:13:35;25.52;;;8.88;;
35442;SDS011;21561;55.654;37.592;2023-02-01T02:26:53;26.27;;;11.00;;
35442;SDS011;21561;55.654;37.592;2023-02-01T02:44:00;25.40;;;9.95;;
35442;SDS011;21561;55.654;37.592;2023-02-01T02:46:56;26.63;;;10.48;;
35442;SDS011;21561;55.654;37.592;2023-02-01T02:52:44;26.23;;;9.77;;
35442;SDS011;21561;55.654;37.592;2023-02-01T02:55:37;27.10;;;10.50;;
35442;SDS011;21561;55.654;37.592;2023-02-01T02:58:06;25.63;;;9.70;;
35442;SDS011;21561;55.654;37.592;2023-02-01T03:00:53;26.40;;;10.45;;
35442;SDS011;21561;55.654;37.592;2023-02-01T03:03:42;26.00;;;10.52;;
35442;SDS011;21561;55.654;37.592;2023-02-01T03:06:31;27.83;;;10.48;;
35442;SDS011;21561;55.654;37.592;2023-02-01T03:08:59;26.20;;;9.55;;
35442;SDS011;21561;55.654;37.592;2023-02-01T03:11:29;27.58;;;10.73;;
35442;SDS011;21561;55.654;37.592;2023-02-01T03:14:17;25.95;;;10.32;;
35442;SDS011;21561;55.654;37.592;2023-02-01T03:16:49;26.83;;;10.20;;
35442;SDS011;21561;55.654;37.592;2023-02-01T03:19:22;28.17;;;10.50;;
35442;SDS011;21561;55.654;37.592;2023-02-01T03:21:51;26.00;;;10.32;;
35442;SDS011;21561;55.654;37.592;2023-02-01T03:32:33;29.88;;;10.88;;
35442;SDS011;21561;55.654;37.592;2023-02-01T03:35:23;26.77;;;10.38;;
35442;SDS011;21561;55.654;37.592;2023-02-01T03:38:22;25.40;;;10.55;;
35442;SDS011;21561;55.654;37.592;2023-02-01T03:40:58;28.38;;;10.13;;
35442;SDS011;21561;55.654;37.592;2023-02-01T03:43:54;25.98;;;10.38;;
35442;SDS011;21561;55.654;37.592;2023-02-01T03:46:29;28.23;;;10.48;;
35442;SDS011;21561;55.654;37.592;2023-02-01T03:49:03;30.17;;;11.05;;
35442;SDS011;21561;55.654;37.592;2023-02-01T03:51:34;28.23;;;10.82;;
35442;SDS011;21561;55.654;37.592;2023-02-01T03:54:04;26.50;;;10.35;;
35442;SDS011;21561;55.654;37.592;2023-02-01T03:56:36;29.20;;;10.88;;
35442;SDS011;21561;55.654;37.592;2023-02-01T03:59:04;27.33;;;10.20;;
35442;SDS011;21561;55.654;37.592;2023-02-01T04:01:31;31.85;;;11.85;;
35442;SDS011;21561;55.654;37.592;2023-02-01T04:03:58;27.17;;;10.98;;
35442;SDS011;21561;55.654;37.592;2023-02-01T04:06:25;29.42;;;11.43;;
35442;SDS011;21561;55.654;37.592;2023-02-01T04:08:52;29.73;;;11.95;;
35442;SDS011;21561;55.654;37.592;2023-02-01T04:11:19;25.58;;;10.90;;
35442;SDS011;21561;55.654;37.592;2023-02-01T04:13:46;28.17;;;10.75;;
35442;SDS011;21561;55.654;37.592;2023-02-01T04:16:12;33.95;;;12.85;;
35442;SDS011;21561;55.654;37.592;2023-02-01T04:18:39;29.70;;;11.27;;
35442;SDS011;21561;55.654;37.592;2023-02-01T04:21:06;29.00;;;11.40;;
35442;SDS011;21561;55.654;37.592;2023-02-01T04:23:33;30.20;;;11.00;;
35442;SDS011;21561;55.654;37.592;2023-02-01T04:26:00;28.08;;;10.65;;
35442;SDS011;21561;55.654;37.592;2023-02-01T04:28:29;30.38;;;10.40;;
35442;SDS011;21561;55.654;37.592;2023-02-01T04:30:56;30.60;;;11.38;;
35442;SDS011;21561;55.654;37.592;2023-02-01T04:33:23;31.27;;;12.13;;
35442;SDS011;21561;55.654;37.592;2023-02-01T04:35:50;30.10;;;11.15;;
35442;SDS011;21561;55.654;37.592;2023-02-01T04:38:17;29.58;;;11.55;;
35442;SDS011;21561;55.654;37.592;2023-02-01T04:40:46;30.13;;;11.07;;
35442;SDS011;21561;55.654;37.592;2023-02-01T04:43:13;30.08;;;11.48;;
35442;SDS011;21561;55.654;37.592;2023-02-01T04:45:40;35.75;;;12.55;;
35442;SDS011;21561;55.654;37.592;2023-02-01T04:48:07;26.92;;;10.88;;
35442;SDS011;21561;55.654;37.592;2023-02-01T04:50:34;31.88;;;11.77;;
35442;SDS011;21561;55.654;37.592;2023-02-01T04:53:01;30.70;;;12.40;;
35442;SDS011;21561;55.654;37.592;2023-02-01T04:55:27;32.75;;;11.57;;
35442;SDS011;21561;55.654;37.592;2023-02-01T04:57:54;33.47;;;11.63;;
35442;SDS011;21561;55.654;37.592;2023-02-01T05:00:21;33.22;;;12.07;;
35442;SDS011;21561;55.654;37.592;2023-02-01T05:02:49;27.55;;;11.98;;
35442;SDS011;21561;55.654;37.592;2023-02-01T05:05:16;34.22;;;12.23;;
35442;SDS011;21561;55.654;37.592;2023-02-01T05:07:42;30.52;;;12.60;;
35442;SDS011;21561;55.654;37.592;2023-02-01T05:10:09;29.75;;;11.90;;
35442;SDS011;21561;55.654;37.592;2023-02-01T05:12:37;32.20;;;11.82;;
35442;SDS011;21561;55.654;37.592;2023-02-01T05:15:23;34.10;;;11.93;;
35442;SDS011;21561;55.654;37.592;2023-02-01T05:17:50;35.03;;;13.00;;
35442;SDS011;21561;55.654;37.592;2023-02-01T05:20:16;30.52;;;12.70;;
35442;SDS011;21561;55.654;37.592;2023-02-01T05:22:43;32.58;;;13.00;;
35442;SDS011;21561;55.654;37.592;2023-02-01T05:25:10;30.67;;;11.82;;
35442;SDS011;21561;55.654;37.592;2023-02-01T05:27:38;33.78;;;13.02;;
35442;SDS011;21561;55.654;37.592;2023-02-01T05:30:05;35.92;;;12.45;;
35442;SDS011;21561;55.654;37.592;2023-02-01T05:32:34;35.25;;;12.55;;
35442;SDS011;21561;55.654;37.592;2023-02-01T05:35:01;36.30;;;13.00;;
35442;SDS011;21561;55.654;37.592;2023-02-01T05:37:29;36.83;;;13.73;;
35442;SDS011;21561;55.654;37.592;2023-02-01T05:39:56;38.05;;;13.35;;
35442;SDS011;21561;55.654;37.592;2023-02-01T05:42:22;35.90;;;13.57;;
35442;SDS011;21561;55.654;37.592;2023-02-01T05:44:49;34.67;;;12.63;;
35442;SDS011;21561;55.654;37.592;2023-02-01T05:47:16;37.38;;;13.93;;
35442;SDS011;21561;55.654;37.592;2023-02-01T05:49:43;35.00;;;13.05;;
35442;SDS011;21561;55.654;37.592;2023-02-01T05:52:10;35.28;;;14.05;;
35442;SDS011;21561;55.654;37.592;2023-02-01T05:54:37;35.70;;;13.68;;
35442;SDS011;21561;55.654;37.592;2023-02-01T05:57:04;36.83;;;12.98;;
35442;SDS011;21561;55.654;37.592;2023-02-01T05:59:30;41.40;;;14.52;;
35442;SDS011;21561;55.654;37.592;2023-02-01T06:01:57;37.40;;;13.27;;
35442;SDS011;21561;55.654;37.592;2023-02-01T06:04:24;36.90;;;13.48;;
35442;SDS011;21561;55.654;37.592;2023-02-01T06:06:51;37.30;;;13.15;;
35442;SDS011;21561;55.654;37.592;2023-02-01T06:09:18;37.15;;;14.77;;
35442;SDS011;21561;55.654;37.592;2023-02-01T06:11:45;36.50;;;13.05;;
35442;SDS011;21561;55.654;37.592;2023-02-01T06:14:11;38.83;;;13.23;;
35442;SDS011;21561;55.654;37.592;2023-02-01T06:16:38;39.13;;;14.10;;
35442;SDS011;21561;55.654;37.592;2023-02-01T06:19:05;38.80;;;13.60;;
35442;SDS011;21561;55.654;37.592;2023-02-01T06:21:32;35.55;;;13.38;;
35442;SDS011;21561;55.654;37.592;2023-02-01T06:24:00;37.17;;;13.43;;
35442;SDS011;21561;55.654;37.592;2023-02-01T06:26:27;34.67;;;12.20;;
35442;SDS011;21561;55.654;37.592;2023-02-01T06:28:55;35.03;;;13.07;;
35442;SDS011;21561;55.654;37.592;2023-02-01T06:31:23;35.67;;;13.48;;
35442;SDS011;21561;55.654;37.592;2023-02-01T06:33:51;33.05;;;12.90;;
35442;SDS011;21561;55.654;37.592;2023-02-01T06:36:19;35.63;;;13.30;;
35442;SDS011;21561;55.654;37.592;2023-02-01T06:38:47;36.67;;;13.63;;
35442;SDS011;21561;55.654;37.592;2023-02-01T06:41:14;36.42;;;14.20;;
35442;SDS011;21561;55.654;37.592;2023-02-01T06:43:41;37.70;;;14.73;;
35442;SDS011;21561;55.654;37.592;2023-02-01T06:46:09;36.17;;;14.60;;
35442;SDS011;21561;55.654;37.592;2023-02-01T06:48:38;34.80;;;13.30;;
35442;SDS011;21561;55.654;37.592;2023-02-01T06:51:05;37.95;;;13.43;;
35442;SDS011;21561;55.654;37.592;2023-02-01T06:53:32;37.67;;;14.48;;
35442;SDS011;21561;55.654;37.592;2023-02-01T06:56:00;36.97;;;13.10;;
35442;SDS011;21561;55.654;37.592;2023-02-01T06:58:32;42.33;;;13.82;;
35442;SDS011;21561;55.654;37.592;2023-02-01T07:01:06;36.33;;;13.63;;
35442;SDS011;21561;55.654;37.592;2023-02-01T07:03:34;35.75;;;13.77;;
35442;SDS011;21561;55.654;37.592;2023-02-01T07:06:02;36.25;;;13.80;;
35442;SDS011;21561;55.654;37.592;2023-02-01T07:08:31;37.95;;;15.23;;
35442;SDS011;21561;55.654;37.592;2023-02-01T07:11:06;35.10;;;13.13;;
35442;SDS011;21561;55.654;37.592;2023-02-01T07:13:35;34.88;;;13.40;;
35442;SDS011;21561;55.654;37.592;2023-02-01T07:16:02;34.13;;;13.73;;
35442;SDS011;21561;55.654;37.592;2023-02-01T07:18:31;33.20;;;12.55;;
35442;SDS011;21561;55.654;37.592;2023-02-01T07:20:58;35.63;;;13.88;;
35442;SDS011;21561;55.654;37.592;2023-02-01T07:23:26;38.30;;;14.07;;
35442;SDS011;21561;55.654;37.592;2023-02-01T07:25:57;34.10;;;13.40;;
35442;SDS011;21561;55.654;37.592;2023-02-01T07:28:24;34.22;;;12.57;;
35442;SDS011;21561;55.654;37.592;2023-02-01T07:30:52;33.55;;;13.00;;
35442;SDS011;21561;55.654;37.592;2023-02-01T07:33:22;37.88;;;14.20;;
35442;SDS011;21561;55.654;37.592;2023-02-01T07:35:53;33.50;;;13.00;;
35442;SDS011;21561;55.654;37.592;2023-02-01T07:38:20;33.55;;;12.77;;
35442;SDS011;21561;55.654;37.592;2023-02-01T07:40:48;33.53;;;13.30;;
35442;SDS011;21561;55.654;37.592;2023-02-01T07:43:14;36.33;;;14.02;;
35442;SDS011;21561;55.654;37.592;2023-02-01T07:45:43;32.22;;;12.93;;
35442;SDS011;21561;55.654;37.592;2023-02-01T07:48:24;34.08;;;13.23;;
35442;SDS011;21561;55.654;37.592;2023-02-01T07:51:01;36.17;;;13.98;;
35442;SDS011;21561;55.654;37.592;2023-02-01T07:53:39;33.25;;;13.23;;
35442;SDS011;21561;55.654;37.592;2023-02-01T07:56:17;36.80;;;14.10;;
35442;SDS011;21561;55.654;37.592;2023-02-01T07:58:49;37.30;;;15.00;;
35442;SDS011;21561;55.654;37.592;2023-02-01T08:01:21;31.33;;;12.77;;
35442;SDS011;21561;55.654;37.592;2023-02-01T08:03:55;34.88;;;13.27;;
35442;SDS011;21561;55.654;37.592;2023-02-01T08:06:25;34.33;;;13.63;;
35442;SDS011;21561;55.654;37.592;2023-02-01T08:09:14;32.30;;;13.07;;
35442;SDS011;21561;55.654;37.592;2023-02-01T08:12:06;31.27;;;11.88;;
35442;SDS011;21561;55.654;37.592;2023-02-01T08:14:34;30.67;;;12.25;;
35442;SDS011;21561;55.654;37.592;2023-02-01T08:17:23;31.45;;;12.70;;
35442;SDS011;21561;55.654;37.592;2023-02-01T08:19:50;33.28;;;13.32;;
35442;SDS011;21561;55.654;37.592;2023-02-01T08:22:17;34.20;;;12.47;;
35442;SDS011;21561;55.654;37.592;2023-02-01T08:31:09;30.45;;;11.85;;
35442;SDS011;21561;55.654;37.592;2023-02-01T08:33:38;31.38;;;12.20;;
35442;SDS011;21561;55.654;37.592;2023-02-01T08:36:05;31.13;;;12.13;;
35442;SDS011;21561;55.654;37.592;2023-02-01T08:38:36;33.42;;;12.68;;
35442;SDS011;21561;55.654;37.592;2023-02-01T08:42:03;31.63;;;12.40;;
35442;SDS011;21561;55.654;37.592;2023-02-01T08:44:52;30.83;;;12.20;;
35442;SDS011;21561;55.654;37.592;2023-02-01T08:48:10;32.55;;;11.98;;
35442;SDS011;21561;55.654;37.592;2023-02-01T08:50:37;31.25;;;11.55;;
35442;SDS011;21561;55.654;37.592;2023-02-01T08:53:03;32.75;;;11.80;;
35442;SDS011;21561;55.654;37.592;2023-02-01T08:55:30;29.30;;;11.27;;
35442;SDS011;21561;55.654;37.592;2023-02-01T08:57:57;31.15;;;12.32;;
35442;SDS011;21561;55.654;37.592;2023-02-01T09:00:24;28.13;;;11.32;;
35442;SDS011;21561;55.654;37.592;2023-02-01T09:02:51;30.08;;;12.63;;
35442;SDS011;21561;55.654;37.592;2023-02-01T09:05:18;32.30;;;12.50;;
35442;SDS011;21561;55.654;37.592;2023-02-01T09:07:48;33.13;;;13.40;;
35442;SDS011;21561;55.654;37.592;2023-02-01T09:10:15;40.60;;;14.95;;
35442;SDS011;21561;55.654;37.592;2023-02-01T09:12:55;38.42;;;14.25;;
35442;SDS011;21561;55.654;37.592;2023-02-01T09:15:21;36.38;;;14.63;;
35442;SDS011;21561;55.654;37.592;2023-02-01T09:17:48;36.83;;;15.27;;
35442;SDS011;21561;55.654;37.592;2023-02-01T09:20:15;39.38;;;14.88;;
35442;SDS011;21561;55.654;37.592;2023-02-01T09:22:42;38.42;;;15.52;;
35442;SDS011;21561;55.654;37.592;2023-02-01T09:25:09;39.25;;;15.68;;
35442;SDS011;21561;55.654;37.592;2023-02-01T09:27:36;40.83;;;16.00;;
35442;SDS011;21561;55.654;37.592;2023-02-01T09:30:03;37.65;;;16.20;;
35442;SDS011;21561;55.654;37.592;2023-02-01T09:32:31;40.90;;;16.35;;
35442;SDS011;21561;55.654;37.592;2023-02-01T09:34:58;34.60;;;14.23;;
35442;SDS011;21561;55.654;37.592;2023-02-01T09:37:24;36.75;;;15.25;;
35442;SDS011;21561;55.654;37.592;2023-02-01T09:39:57;39.80;;;15.52;;
35442;SDS011;21561;55.654;37.592;2023-02-01T09:45:19;40.78;;;14.93;;
35442;SDS011;21561;55.654;37.592;2023-02-01T09:48:17;36.35;;;15.55;;
35442;SDS011;21561;55.654;37.592;2023-02-01T09:50:54;34.70;;;14.90;;
35442;SDS011;21561;55.654;37.592;2023-02-01T09:53:27;37.85;;;15.68;;
35442;SDS011;21561;55.654;37.592;2023-02-01T09:56:21;37.05;;;15.20;;
35442;SDS011;21561;55.654;37.592;2023-02-01T09:58:49;35.92;;;15.20;;
35442;SDS011;21561;55.654;37.592;2023-02-01T10:01:26;34.78;;;14.52;;
35442;SDS011;21561;55.654;37.592;2023-02-01T10:04:05;34.03;;;14.68;;
35442;SDS011;21561;55.654;37.592;2023-02-01T10:14:59;40.15;;;15.82;;
35442;SDS011;21561;55.654;37.592;2023-02-01T10:26:42;35.05;;;14.18;;
35442;SDS011;21561;55.654;37.592;2023-02-01T10:28:52;34.67;;;14.55;;
35442;SDS011;21561;55.654;37.592;2023-02-01T10:31:30;33.08;;;14.18;;
35442;SDS011;21561;55.654;37.592;2023-02-01T10:34:06;34.92;;;14.18;;
35442;SDS011;21561;55.654;37.592;2023-02-01T10:37:20;34.95;;;14.38;;
35442;SDS011;21561;55.654;37.592;2023-02-01T10:40:02;32.33;;;13.45;;
35442;SDS011;21561;55.654;37.592;2023-02-01T10:42:42;34.03;;;14.95;;
35442;SDS011;21561;55.654;37.592;2023-02-01T10:45:12;37.10;;;15.38;;
35442;SDS011;21561;55.654;37.592;2023-02-01T10:47:43;35.00;;;14.63;;
35442;SDS011;21561;55.654;37.592;2023-02-01T10:50:13;33.10;;;14.23;;
35442;SDS011;21561;55.654;37.592;2023-02-01T10:52:50;34.97;;;15.52;;
35442;SDS011;21561;55.654;37.592;2023-02-01T10:58:00;36.97;;;14.50;;
35442;SDS011;21561;55.654;37.592;2023-02-01T11:00:38;35.20;;;14.77;;
35442;SDS011;21561;55.654;37.592;2023-02-01T11:04:07;35.53;;;14.50;;
35442;SDS011;21561;55.654;37.592;2023-02-01T11:06:24;34.05;;;14.10;;
35442;SDS011;21561;55.654;37.592;2023-02-01T11:08:57;36.90;;;14.82;;
35442;SDS011;21561;55.654;37.592;2023-02-01T11:11:27;35.33;;;14.13;;
35442;SDS011;21561;55.654;37.592;2023-02-01T11:13:55;36.97;;;14.93;;
35442;SDS011;21561;55.654;37.592;2023-02-01T11:19:27;34.05;;;13.90;;
35442;SDS011;21561;55.654;37.592;2023-02-01T11:21:55;34.30;;;14.27;;
35442;SDS011;21561;55.654;37.592;2023-02-01T11:24:29;34.55;;;14.07;;
35442;SDS011;21561;55.654;37.592;2023-02-01T11:27:00;33.63;;;13.75;;
35442;SDS011;21561;55.654;37.592;2023-02-01T11:29:36;32.58;;;14.20;;
35442;SDS011;21561;55.654;37.592;2023-02-01T11:32:06;31.58;;;14.15;;
35442;SDS011;21561;55.654;37.592;2023-02-01T11:34:37;32.30;;;14.32;;
35442;SDS011;21561;55.654;37.592;2023-02-01T11:37:09;35.15;;;13.90;;
35442;SDS011;21561;55.654;37.592;2023-02-01T11:40:03;34.47;;;14.68;;
35442;SDS011;21561;55.654;37.592;2023-02-01T11:42:58;34.13;;;13.55;;
35442;SDS011;21561;55.654;37.592;2023-02-01T11:45:30;33.45;;;13.60;;
35442;SDS011;21561;55.654;37.592;2023-02-01T11:48:00;33.08;;;14.32;;
35442;SDS011;21561;55.654;37.592;2023-02-01T11:50:43;37.97;;;13.98;;
35442;SDS011;21561;55.654;37.592;2023-02-01T11:56:22;33.20;;;14.35;;
35442;SDS011;21561;55.654;37.592;2023-02-01T12:04:16;33.53;;;14.68;;
35442;SDS011;21561;55.654;37.592;2023-02-01T12:09:32;29.60;;;12.43;;
35442;SDS011;21561;55.654;37.592;2023-02-01T12:26:12;29.00;;;12.13;;
35442;SDS011;21561;55.654;37.592;2023-02-01T12:37:35;28.65;;;11.35;;
35442;SDS011;21561;55.654;37.592;2023-02-01T12:43:12;28.30;;;11.57;;
35442;SDS011;21561;55.654;37.592;2023-02-01T12:45:45;29.08;;;11.40;;
35442;SDS011;21561;55.654;37.592;2023-02-01T12:51:11;27.42;;;11.13;;
35442;SDS011;21561;55.654;37.592;2023-02-01T12:53:54;26.83;;;10.60;;
35442;SDS011;21561;55.654;37.592;2023-02-01T12:56:38;28.35;;;11.85;;
35442;SDS011;21561;55.654;37.592;2023-02-01T12:59:16;28.90;;;11.43;;
35442;SDS011;21561;55.654;37.592;2023-02-01T13:02:33;27.88;;;10.55;;
35442;SDS011;21561;55.654;37.592;2023-02-01T13:05:02;26.98;;;10.05;;
35442;SDS011;21561;55.654;37.592;2023-02-01T13:07:43;28.02;;;10.48;;
35442;SDS011;21561;55.654;37.592;2023-02-01T13:15:44;27.38;;;10.02;;
35442;SDS011;21561;55.654;37.592;2023-02-01T13:18:18;26.33;;;9.05;;
35442;SDS011;21561;55.654;37.592;2023-02-01T13:20:49;24.30;;;9.82;;
35442;SDS011;21561;55.654;37.592;2023-02-01T13:23:27;25.02;;;9.10;;
35442;SDS011;21561;55.654;37.592;2023-02-01T13:25:59;21.75;;;7.68;;
35442;SDS011;21561;55.654;37.592;2023-02-01T13:28:27;21.92;;;7.95;;
35442;SDS011;21561;55.654;37.592;2023-02-01T13:37:08;23.75;;;8.68;;
35442;SDS011;21561;55.654;37.592;2023-02-01T13:45:14;21.52;;;7.75;;
35442;SDS011;21561;55.654;37.592;2023-02-01T13:47:54;20.73;;;7.28;;
35442;SDS011;21561;55.654;37.592;2023-02-01T13:50:25;20.38;;;7.32;;
35442;SDS011;21561;55.654;37.592;2023-02-01T13:52:56;22.52;;;7.95;;
35442;SDS011;21561;55.654;37.592;2023-02-01T13:55:35;21.08;;;7.82;;
35442;SDS011;21561;55.654;37.592;2023-02-01T14:03:58;23.17;;;8.02;;
35442;SDS011;21561;55.654;37.592;2023-02-01T14:11:47;23.75;;;8.38;;
35442;SDS011;21561;55.654;37.592;2023-02-01T14:19:25;27.90;;;9.57;;
35442;SDS011;21561;55.654;37.592;2023-02-01T14:21:53;24.88;;;10.02;;
35442;SDS011;21561;55.654;37.592;2023-02-01T14:27:06;23.42;;;9.80;;
35442;SDS011;21561;55.654;37.592;2023-02-01T14:29:50;24.13;;;8.95;;
35442;SDS011;21561;55.654;37.592;2023-02-01T14:32:25;25.52;;;9.43;;
35442;SDS011;21561;55.654;37.592;2023-02-01T14:35:26;24.30;;;9.23;;
35442;SDS011;21561;55.654;37.592;2023-02-01T14:37:54;24.00;;;8.75;;
35442;SDS011;21561;55.654;37.592;2023-02-01T14:40:29;23.08;;;8.55;;
35442;SDS011;21561;55.654;37.592;2023-02-01T14:42:57;23.48;;;8.27;;
35442;SDS011;21561;55.654;37.592;2023-02-01T14:47:55;22.80;;;8.65;;
35442;SDS011;21561;55.654;37.592;2023-02-01T14:50:44;24.38;;;8.43;;
35442;SDS011;21561;55.654;37.592;2023-02-01T14:53:15;22.60;;;8.73;;
35442;SDS011;21561;55.654;37.592;2023-02-01T15:09:23;22.77;;;8.40;;
35442;SDS011;21561;55.654;37.592;2023-02-01T15:20:16;23.40;;;9.02;;
35442;SDS011;21561;55.654;37.592;2023-02-01T15:22:59;26.23;;;9.35;;
35442;SDS011;21561;55.654;37.592;2023-02-01T15:25:29;28.30;;;10.60;;
35442;SDS011;21561;55.654;37.592;2023-02-01T15:27:59;27.67;;;10.07;;
35442;SDS011;21561;55.654;37.592;2023-02-01T15:30:27;29.20;;;10.82;;
35442;SDS011;21561;55.654;37.592;2023-02-01T15:33:06;28.17;;;10.93;;
35442;SDS011;21561;55.654;37.592;2023-02-01T15:35:45;27.10;;;10.13;;
35442;SDS011;21561;55.654;37.592;2023-02-01T15:46:22;28.35;;;11.45;;
35442;SDS011;21561;55.654;37.592;2023-02-01T15:48:55;28.63;;;10.60;;
35442;SDS011;21561;55.654;37.592;2023-02-01T15:51:24;27.88;;;11.70;;
35442;SDS011;21561;55.654;37.592;2023-02-01T15:53:58;28.48;;;10.82;;
35442;SDS011;21561;55.654;37.592;2023-02-01T15:56:28;31.88;;;12.38;;
35442;SDS011;21561;55.654;37.592;2023-02-01T15:59:00;27.65;;;11.23;;
35442;SDS011;21561;55.654;37.592;2023-02-01T16:01:29;29.38;;;11.77;;
35442;SDS011;21561;55.654;37.592;2023-02-01T16:04:04;29.02;;;11.88;;
35442;SDS011;21561;55.654;37.592;2023-02-01T16:06:53;28.58;;;12.05;;
35442;SDS011;21561;55.654;37.592;2023-02-01T16:09:23;29.02;;;11.98;;
35442;SDS011;21561;55.654;37.592;2023-02-01T16:14:24;28.07;;;11.17;;
35442;SDS011;21561;55.654;37.592;2023-02-01T16:16:53;30.75;;;11.52;;
35442;SDS011;21561;55.654;37.592;2023-02-01T16:19:21;28.85;;;11.18;;
35442;SDS011;21561;55.654;37.592;2023-02-01T16:21:51;31.17;;;11.60;;
35442;SDS011;21561;55.654;37.592;2023-02-01T16:24:18;30.38;;;12.13;;
35442;SDS011;21561;55.654;37.592;2023-02-01T16:26:45;31.05;;;11.55;;
35442;SDS011;21561;55.654;37.592;2023-02-01T16:29:11;28.48;;;11.98;;
35442;SDS011;21561;55.654;37.592;2023-02-01T16:31:38;32.03;;;12.32;;
35442;SDS011;21561;55.654;37.592;2023-02-01T16:34:09;28.17;;;11.70;;
35442;SDS011;21561;55.654;37.592;2023-02-01T16:36:40;27.50;;;11.45;;
35442;SDS011;21561;55.654;37.592;2023-02-01T16:39:09;27.75;;;11.07;;
35442;SDS011;21561;55.654;37.592;2023-02-01T16:41:37;28.40;;;10.45;;
35442;SDS011;21561;55.654;37.592;2023-02-01T16:44:05;30.45;;;11.55;;
35442;SDS011;21561;55.654;37.592;2023-02-01T16:46:35;26.95;;;10.40;;
35442;SDS011;21561;55.654;37.592;2023-02-01T16:49:05;27.02;;;10.38;;
35442;SDS011;21561;55.654;37.592;2023-02-01T16:51:41;29.00;;;10.10;;
35442;SDS011;21561;55.654;37.592;2023-02-01T16:54:11;25.50;;;9.57;;
35442;SDS011;21561;55.654;37.592;2023-02-01T16:56:37;22.02;;;8.60;;
35442;SDS011;21561;55.654;37.592;2023-02-01T16:59:07;22.13;;;8.13;;
35442;SDS011;21561;55.654;37.592;2023-02-01T17:01:35;23.00;;;8.10;;
35442;SDS011;21561;55.654;37.592;2023-02-01T17:04:04;22.05;;;7.28;;
35442;SDS011;21561;55.654;37.592;2023-02-01T17:06:31;21.80;;;7.03;;
35442;SDS011;21561;55.654;37.592;2023-02-01T17:08:59;19.67;;;6.50;;
35442;SDS011;21561;55.654;37.592;2023-02-01T17:11:27;22.23;;;8.18;;
35442;SDS011;21561;55.654;37.592;2023-02-01T17:13:56;21.40;;;8.35;;
35442;SDS011;21561;55.654;37.592;2023-02-01T17:16:36;23.73;;;8.55;;
35442;SDS011;21561;55.654;37.592;2023-02-01T17:19:05;24.13;;;9.20;;
35442;SDS011;21561;55.654;37.592;2023-02-01T17:21:40;24.17;;;9.23;;
35442;SDS011;21561;55.654;37.592;2023-02-01T17:24:28;21.33;;;7.47;;
35442;SDS011;21561;55.654;37.592;2023-02-01T17:27:13;24.75;;;9.38;;
35442;SDS011;21561;55.654;37.592;2023-02-01T17:29:40;21.90;;;7.68;;
35442;SDS011;21561;55.654;37.592;2023-02-01T17:32:15;22.00;;;7.75;;
35442;SDS011;21561;55.654;37.592;2023-02-01T17:34:45;19.75;;;7.45;;
35442;SDS011;21561;55.654;37.592;2023-02-01T17:37:23;20.13;;;7.22;;
35442;SDS011;21561;55.654;37.592;2023-02-01T17:39:55;21.67;;;7.35;;
35442;SDS011;21561;55.654;37.592;2023-02-01T17:42:23;20.92;;;6.97;;